createdAt,value
2019-04-04T00:00:17.431Z,-21505.95
2019-04-04T00:02:46.017Z,-21489.72
2019-04-04T00:05:14.277Z,-21506.23
2019-04-04T00:07:42.561Z,-21531.68
2019-04-04T00:10:11.160Z,-21517.84
2019-04-04T00:12:39.647Z,-21475.29
2019-04-04T00:15:08.269Z,-21496.15
2019-04-04T00:17:36.552Z,-21496.02
2019-04-04T00:20:06.854Z,-21503.43
2019-04-04T00:22:35.802Z,-21439.68
2019-04-04T00:25:05.442Z,-21448.09
2019-04-04T00:27:33.854Z,-21411.02
2019-04-04T00:30:02.153Z,-21413.97
2019-04-04T00:32:30.568Z,-21418.47
2019-04-04T00:34:59.783Z,-21440.23
2019-04-04T00:37:28.731Z,-21473.75
2019-04-04T00:39:56.988Z,-21428.86
2019-04-04T00:42:25.284Z,-21429.14
2019-04-04T00:44:53.875Z,-21485.66
2019-04-04T00:47:23.530Z,-21467.73
2019-04-04T00:49:51.813Z,-21504.41
2019-04-04T00:52:20.100Z,-21537.82
2019-04-04T00:54:48.371Z,-21445.15
2019-04-04T00:57:17.281Z,-21410.74
2019-04-04T00:59:47.475Z,-21494.34
2019-04-04T01:02:15.728Z,-21468.15
2019-04-04T01:04:44.004Z,-21471.09
2019-04-04T01:07:12.287Z,-21505.53
2019-04-04T01:09:40.573Z,-21564.75
2019-04-04T01:12:09.328Z,-21533.63
2019-04-04T01:14:37.616Z,-21543.96
2019-04-04T01:17:05.889Z,-21521.61
2019-04-04T01:19:34.182Z,-21511.13
2019-04-04T01:22:02.442Z,-21499.51
2019-04-04T01:24:30.715Z,-21494.34
2019-04-04T01:26:58.972Z,-21542.15
2019-04-04T01:29:27.226Z,-21462.96
2019-04-04T01:31:55.621Z,-21469.69
2019-04-04T01:34:23.877Z,-21521.05
2019-04-04T01:36:52.156Z,-21506.09
2019-04-04T01:39:20.450Z,-21469.83
2019-04-04T01:41:48.832Z,-21445.29
2019-04-04T01:44:17.091Z,-21476.97
2019-04-04T01:46:46.007Z,-21488.74
2019-04-04T01:49:14.807Z,-21545.64
2019-04-04T01:51:43.321Z,-21485.66
2019-04-04T01:54:11.847Z,-21471.51
2019-04-04T01:56:40.283Z,-21441.22
2019-04-04T01:59:10.229Z,-21492.10
2019-04-04T02:01:38.666Z,-21503.99
2019-04-04T02:04:06.976Z,-21541.59
2019-04-04T02:06:35.206Z,-21509.87
2019-04-04T02:09:05.597Z,-21556.25
2019-04-04T02:11:33.860Z,-21518.12
2019-04-04T02:14:02.300Z,-21531.81
2019-04-04T02:16:30.582Z,-21477.11
2019-04-04T02:18:58.844Z,-21493.50
2019-04-04T02:21:28.842Z,-21497.00
2019-04-04T02:23:57.090Z,-21524.40
2019-04-04T02:26:25.358Z,-21515.18
2019-04-04T02:28:53.635Z,-21479.77
2019-04-04T02:31:22.534Z,-21508.89
2019-04-04T02:33:50.811Z,-21470.25
2019-04-04T02:36:19.081Z,-21475.71
2019-04-04T02:39:02.126Z,-21526.36
2019-04-04T02:41:30.369Z,-21550.80
2019-04-04T02:43:59.735Z,-21530.56
2019-04-04T02:46:28.627Z,-21537.82
2019-04-04T02:48:57.095Z,-21526.36
2019-04-04T02:51:25.433Z,-21529.58
2019-04-04T02:53:53.736Z,-21505.95
2019-04-04T02:56:21.965Z,-21460.86
2019-04-04T02:58:50.806Z,-21480.33
2019-04-04T03:01:19.131Z,-21499.80
2019-04-04T03:03:47.394Z,-21498.67
2019-04-04T03:06:15.687Z,-21479.64
2019-04-04T03:08:43.954Z,-21520.49
2019-04-04T03:11:12.226Z,-21543.40
2019-04-04T03:13:40.494Z,-21491.40
2019-04-04T03:16:08.843Z,-21507.35
2019-04-04T03:18:38.043Z,-21517.14
2019-04-04T03:21:06.558Z,-21500.91
2019-04-04T03:23:34.839Z,-21485.93
2019-04-04T03:26:03.102Z,-21474.17
2019-04-04T03:28:32.398Z,-21480.75
2019-04-04T03:31:02.724Z,-21473.19
2019-04-04T03:33:32.525Z,-21473.89
2019-04-04T03:36:01.348Z,-21449.92
2019-04-04T03:38:29.687Z,-21481.45
2019-04-04T03:40:58.803Z,-21496.44
2019-04-04T03:43:27.105Z,-21469.69
2019-04-04T03:46:00.329Z,-21488.88
2019-04-04T03:48:25.382Z,-21512.24
2019-04-04T03:50:56.688Z,-21474.87
2019-04-04T03:53:23.933Z,-21511.97
2019-04-04T03:55:52.188Z,-21510.01
2019-04-04T03:58:20.456Z,-21531.25
2019-04-04T04:00:48.733Z,-21514.62
2019-04-04T04:03:17.076Z,-21509.87
2019-04-04T04:05:45.370Z,-21546.89
2019-04-04T04:08:13.656Z,-21552.76
2019-04-04T04:10:41.920Z,-21476.83
2019-04-04T04:13:10.195Z,-21527.06
2019-04-04T04:15:38.468Z,-21532.79
2019-04-04T04:18:06.741Z,-21535.17
2019-04-04T04:20:37.583Z,-21539.21
2019-04-04T04:23:05.016Z,-21476.41
2019-04-04T04:25:36.421Z,-21530.84
2019-04-04T04:28:03.342Z,-21533.21
2019-04-04T04:30:31.713Z,-21540.47
2019-04-04T04:33:00.001Z,-21515.88
2019-04-04T04:35:28.359Z,-21536.42
2019-04-04T04:37:56.624Z,-21550.52
2019-04-04T04:40:24.878Z,-21544.52
2019-04-04T04:42:53.142Z,-21493.22
2019-04-04T04:45:21.419Z,-21450.34
2019-04-04T04:47:49.701Z,-21454.55
2019-04-04T04:50:17.959Z,-21479.35
2019-04-04T04:52:47.436Z,-21463.94
2019-04-04T04:55:15.833Z,-21465.20
2019-04-04T04:57:44.114Z,-21472.49
2019-04-04T05:00:13.998Z,-21444.87
2019-04-04T05:02:42.547Z,-21465.20
2019-04-04T05:05:11.250Z,-21480.47
2019-04-04T05:07:39.533Z,-21460.57
2019-04-04T05:10:08.660Z,-21451.88
2019-04-04T05:12:36.920Z,-21482.99
2019-04-04T05:15:06.620Z,-21485.66
2019-04-04T05:17:34.932Z,-21480.33
2019-04-04T05:20:04.831Z,-21485.93
2019-04-04T05:22:33.095Z,-21457.91
2019-04-04T05:25:08.058Z,-21467.30
2019-04-04T05:27:31.364Z,-21469.13
2019-04-04T05:29:59.633Z,-21481.18
2019-04-04T05:32:27.911Z,-21476.83
2019-04-04T05:34:56.159Z,-21468.71
2019-04-04T05:37:27.238Z,-21457.07
2019-04-04T05:39:55.414Z,-21454.83
2019-04-04T05:42:23.699Z,-21442.48
2019-04-04T05:44:51.946Z,-21473.19
2019-04-04T05:47:22.870Z,-21481.18
2019-04-04T05:49:50.266Z,-21468.84
2019-04-04T05:52:18.553Z,-21447.67
2019-04-04T05:54:46.829Z,-21462.81
2019-04-04T05:57:15.099Z,-21465.06
2019-04-04T05:59:43.403Z,-21446.41
2019-04-04T06:02:12.173Z,-21448.09
2019-04-04T06:04:40.528Z,-21449.50
2019-04-04T06:07:08.809Z,-21445.01
2019-04-04T06:09:37.078Z,-21442.20
2019-04-04T06:12:05.407Z,-21429.85
2019-04-04T06:14:35.950Z,-21439.39
2019-04-04T06:17:05.074Z,-21435.46
2019-04-04T06:19:34.262Z,-21450.34
2019-04-04T06:22:02.521Z,-21445.29
2019-04-04T06:24:30.779Z,-21441.07
2019-04-04T06:26:59.063Z,-21441.07
2019-04-04T06:29:27.353Z,-21442.34
2019-04-04T06:31:55.627Z,-21424.79
2019-04-04T06:34:24.163Z,-21420.57
2019-04-04T06:36:53.683Z,-21441.50
2019-04-04T06:39:24.779Z,-21443.04
2019-04-04T06:41:51.938Z,-21436.16
2019-04-04T06:44:20.197Z,-21407.65
2019-04-04T06:46:48.467Z,-21446.97
2019-04-04T06:49:16.739Z,-21419.17
2019-04-04T06:51:46.609Z,-21399.21
2019-04-04T06:54:15.009Z,-21423.25
2019-04-04T06:56:43.290Z,-21391.20
2019-04-04T06:59:12.358Z,-21421.28
2019-04-04T07:01:40.812Z,-21411.02
2019-04-04T07:04:09.101Z,-21413.97
2019-04-04T07:06:37.376Z,-21413.41
2019-04-04T07:09:07.409Z,-21415.38
2019-04-04T07:11:35.897Z,-21393.87
2019-04-04T07:14:04.323Z,-21393.30
2019-04-04T07:16:34.181Z,-21406.52
2019-04-04T07:19:02.719Z,-21412.00
2019-04-04T07:21:31.007Z,-21444.59
2019-04-04T07:24:00.023Z,-21406.10
2019-04-04T07:26:28.317Z,-21409.34
2019-04-04T07:28:57.168Z,-21414.11
2019-04-04T07:31:25.441Z,-21413.55
2019-04-04T07:33:53.697Z,-21422.97
2019-04-04T07:36:21.992Z,-21384.45
2019-04-04T07:38:50.257Z,-21404.55
2019-04-04T07:41:18.509Z,-21397.53
2019-04-04T07:43:46.798Z,-21415.52
2019-04-04T07:46:16.839Z,-21403.71
2019-04-04T07:48:45.054Z,-21403.86
2019-04-04T07:51:13.343Z,-21409.19
2019-04-04T07:53:41.599Z,-21425.21
2019-04-04T07:56:09.860Z,-21402.73
2019-04-04T07:58:38.169Z,-21418.47
2019-04-04T08:01:06.462Z,-21418.32
2019-04-04T08:03:34.725Z,-21409.61
2019-04-04T08:06:03.019Z,-21388.80
2019-04-04T08:08:31.291Z,-21417.48
2019-04-04T08:10:59.565Z,-21426.76
2019-04-04T08:13:27.847Z,-21427.32
2019-04-04T08:15:56.110Z,-21430.83
2019-04-04T08:18:24.394Z,-21424.65
2019-04-04T08:20:52.669Z,-21433.50
2019-04-04T08:23:20.976Z,-21421.70
2019-04-04T08:25:49.231Z,-21425.91
2019-04-04T08:28:17.507Z,-21431.11
2019-04-04T08:30:45.883Z,-21392.04
2019-04-04T08:33:14.231Z,-21424.65
2019-04-04T08:35:42.586Z,-21401.89
2019-04-04T08:38:10.846Z,-21393.73
2019-04-04T08:40:39.134Z,-21398.66
2019-04-04T08:43:07.457Z,-21439.81
2019-04-04T08:45:35.721Z,-21434.48
2019-04-04T08:48:04.005Z,-21433.08
2019-04-04T08:50:32.262Z,-21444.31
2019-04-04T08:53:00.539Z,-21436.16
2019-04-04T08:55:28.822Z,-21439.11
2019-04-04T08:57:57.110Z,-21428.86
2019-04-04T09:00:25.438Z,-21415.66
2019-04-04T09:02:53.705Z,-21435.18
2019-04-04T09:05:21.986Z,-21439.11
2019-04-04T09:07:50.265Z,-21456.93
2019-04-04T09:10:18.636Z,-21420.71
2019-04-04T09:12:46.964Z,-21393.87
2019-04-04T09:15:15.480Z,-21419.45
2019-04-04T09:17:43.791Z,-21423.95
2019-04-04T09:20:12.442Z,-21428.86
2019-04-04T09:22:41.201Z,-21430.13
2019-04-04T09:25:10.648Z,-21427.18
2019-04-04T09:27:39.327Z,-21419.59
2019-04-04T09:30:08.514Z,-21423.81
2019-04-04T09:32:36.782Z,-21421.43
2019-04-04T09:35:07.381Z,-21395.41
2019-04-04T09:37:35.650Z,-21407.09
2019-04-04T09:40:05.840Z,-21414.39
2019-04-04T09:42:34.119Z,-21394.15
2019-04-04T09:45:02.382Z,-21413.41
2019-04-04T09:47:30.654Z,-21413.13
2019-04-04T09:49:58.913Z,-21421.99
2019-04-04T09:52:27.179Z,-21419.31
2019-04-04T09:54:55.452Z,-21436.16
2019-04-04T09:57:23.712Z,-21394.99
2019-04-04T09:59:51.979Z,-21429.57
2019-04-04T10:02:20.241Z,-21406.25
2019-04-04T10:04:48.505Z,-21426.34
2019-04-04T10:07:16.791Z,-21418.75
2019-04-04T10:09:45.072Z,-21428.59
2019-04-04T10:12:13.323Z,-21404.98
2019-04-04T10:14:41.657Z,-21441.50
2019-04-04T10:17:09.996Z,-21408.63
2019-04-04T10:19:38.267Z,-21399.92
2019-04-04T10:22:06.707Z,-21412.71
2019-04-04T10:24:34.986Z,-21414.39
2019-04-04T10:27:03.357Z,-21431.11
2019-04-04T10:29:31.629Z,-21452.86
2019-04-04T10:31:59.886Z,-21433.78
2019-04-04T10:34:28.425Z,-21404.84
2019-04-04T10:36:56.927Z,-21447.11
2019-04-04T10:39:29.000Z,-21391.05
2019-04-04T10:41:55.191Z,-21380.93
2019-04-04T10:44:23.494Z,-21412.85
2019-04-04T10:46:51.762Z,-21398.09
2019-04-04T10:49:20.056Z,-21413.84
2019-04-04T10:51:48.303Z,-21418.89
2019-04-04T10:54:16.571Z,-21405.96
2019-04-04T10:56:44.838Z,-21421.43
2019-04-04T10:59:13.093Z,-21426.20
2019-04-04T11:01:41.353Z,-21408.49
2019-04-04T11:04:09.612Z,-21412.99
2019-04-04T11:06:37.958Z,-21380.08
2019-04-04T11:09:08.612Z,-21381.77
2019-04-04T11:11:36.958Z,-21407.65
2019-04-04T11:14:05.410Z,-21421.43
2019-04-04T11:16:33.681Z,-21415.23
2019-04-04T11:19:01.959Z,-21423.81
2019-04-04T11:21:30.226Z,-21411.16
2019-04-04T11:23:58.484Z,-21416.93
2019-04-04T11:26:26.830Z,-21414.54
2019-04-04T11:28:55.193Z,-21425.50
2019-04-04T11:31:23.528Z,-21417.76
2019-04-04T11:33:51.779Z,-21407.09
2019-04-04T11:36:20.126Z,-21395.13
2019-04-04T11:38:48.394Z,-21425.64
2019-04-04T11:41:16.648Z,-21413.27
2019-04-04T11:43:44.935Z,-21400.63
2019-04-04T11:46:13.217Z,-21395.55
2019-04-04T11:48:44.783Z,-21433.08
2019-04-04T11:51:13.064Z,-21417.06
2019-04-04T11:53:41.313Z,-21419.59
2019-04-04T11:56:09.651Z,-21427.60
2019-04-04T11:58:37.939Z,-21458.89
2019-04-04T12:01:10.529Z,-21445.15
2019-04-04T12:03:38.782Z,-21431.11
2019-04-04T12:06:07.060Z,-21425.35
2019-04-04T12:08:35.334Z,-21453.00
2019-04-04T12:11:03.589Z,-21430.13
2019-04-04T12:13:33.490Z,-21452.44
2019-04-04T12:16:01.753Z,-21412.85
2019-04-04T12:18:30.036Z,-21444.59
2019-04-04T12:20:58.283Z,-21468.71
2019-04-04T12:23:26.543Z,-21421.84
2019-04-04T12:25:54.830Z,-21392.18
2019-04-04T12:28:23.077Z,-21407.51
2019-04-04T12:30:51.408Z,-21386.98
2019-04-04T12:33:19.703Z,-21373.75
2019-04-04T12:35:47.999Z,-21429.99
2019-04-04T12:38:16.254Z,-21418.19
2019-04-04T12:40:44.543Z,-21420.44
2019-04-04T12:43:13.183Z,-21431.81
2019-04-04T12:45:41.475Z,-21388.10
2019-04-04T12:48:09.750Z,-21392.88
2019-04-04T12:50:38.021Z,-21421.43
2019-04-04T12:53:06.363Z,-21421.99
2019-04-04T12:55:34.630Z,-21389.93
2019-04-04T12:58:02.906Z,-21417.20
2019-04-04T13:00:31.177Z,-21430.83
2019-04-04T13:02:59.438Z,-21400.48
2019-04-04T13:05:27.711Z,-21414.39
2019-04-04T13:07:55.981Z,-21388.24
2019-04-04T13:10:32.789Z,-21412.57
2019-04-04T13:12:54.268Z,-21380.22
2019-04-04T13:15:22.561Z,-21412.99
2019-04-04T13:17:50.818Z,-21401.19
2019-04-04T13:20:19.155Z,-21400.20
2019-04-04T13:22:47.412Z,-21396.26
2019-04-04T13:25:15.762Z,-21408.63
2019-04-04T13:27:44.039Z,-21417.48
2019-04-04T13:30:13.749Z,-21408.49
2019-04-04T13:32:42.005Z,-21393.30
2019-04-04T13:35:12.466Z,-21394.99
2019-04-04T13:37:40.811Z,-21396.68
2019-04-04T13:40:10.138Z,-21395.84
2019-04-04T13:42:38.411Z,-21456.23
2019-04-04T13:45:07.197Z,-21428.86
2019-04-04T13:47:38.110Z,-21424.65
2019-04-04T13:50:08.789Z,-21461.98
2019-04-04T13:52:37.088Z,-21437.71
2019-04-04T13:55:06.779Z,-21417.35
2019-04-04T13:57:35.029Z,-21412.99
2019-04-04T14:00:05.323Z,-21412.99
2019-04-04T14:02:33.578Z,-21420.15
2019-04-04T14:05:10.129Z,-21432.52
2019-04-04T14:07:34.878Z,-21439.53
2019-04-04T14:10:04.295Z,-21408.07
2019-04-04T14:12:32.556Z,-21463.94
2019-04-04T14:15:00.826Z,-21432.66
2019-04-04T14:17:29.104Z,-21386.83
2019-04-04T14:19:57.365Z,-21436.86
2019-04-04T14:22:28.659Z,-21429.99
2019-04-04T14:24:56.927Z,-21408.63
2019-04-04T14:27:27.156Z,-21410.32
2019-04-04T14:29:55.525Z,-21437.85
2019-04-04T14:32:23.770Z,-21449.78
2019-04-04T14:34:52.058Z,-21438.13
2019-04-04T14:37:20.325Z,-21441.50
2019-04-04T14:39:48.598Z,-21434.48
2019-04-04T14:42:16.859Z,-21436.16
2019-04-04T14:44:45.155Z,-21409.05
2019-04-04T14:47:13.943Z,-21436.44
2019-04-04T14:49:45.797Z,-21450.06
2019-04-04T14:52:13.386Z,-21413.97
2019-04-04T14:54:41.663Z,-21423.81
2019-04-04T14:57:09.906Z,-21427.32
2019-04-04T14:59:38.177Z,-21454.41
2019-04-04T15:02:06.464Z,-21432.52
2019-04-04T15:04:34.727Z,-21422.69
2019-04-04T15:07:03.366Z,-21449.64
2019-04-04T15:09:31.632Z,-21445.71
2019-04-04T15:11:59.925Z,-21426.90
2019-04-04T15:14:28.196Z,-21430.55
2019-04-04T15:16:56.475Z,-21419.31
2019-04-04T15:19:24.777Z,-21420.85
2019-04-04T15:21:53.044Z,-21408.07
2019-04-04T15:24:21.327Z,-21436.30
2019-04-04T15:26:49.581Z,-21420.44
2019-04-04T15:29:17.873Z,-21391.05
2019-04-04T15:31:46.149Z,-21406.52
2019-04-04T15:34:14.437Z,-21409.05
2019-04-04T15:36:42.737Z,-21449.36
2019-04-04T15:39:11.004Z,-21451.04
2019-04-04T15:41:39.258Z,-21409.90
2019-04-04T15:44:11.268Z,-21395.41
2019-04-04T15:46:39.517Z,-21390.21
2019-04-04T15:49:07.818Z,-21405.68
2019-04-04T15:51:36.156Z,-21419.03
2019-04-04T15:54:04.487Z,-21452.30
2019-04-04T15:56:33.020Z,-21452.44
2019-04-04T15:59:01.225Z,-21452.44
2019-04-04T16:01:29.511Z,-21430.27
2019-04-04T16:03:57.898Z,-21447.67
2019-04-04T16:06:26.159Z,-21448.65
2019-04-04T16:08:54.455Z,-21448.38
2019-04-04T16:11:24.368Z,-21454.97
2019-04-04T16:13:52.653Z,-21441.50
2019-04-04T16:16:20.923Z,-21462.25
2019-04-04T16:18:49.201Z,-21445.71
2019-04-04T16:21:23.684Z,-21445.01
2019-04-04T16:23:52.121Z,-21407.65
2019-04-04T16:26:20.378Z,-21429.14
2019-04-04T16:28:48.646Z,-21406.66
2019-04-04T16:31:16.992Z,-21448.38
2019-04-04T16:33:45.254Z,-21459.03
2019-04-04T16:36:13.530Z,-21466.32
2019-04-04T16:38:41.969Z,-21443.18
2019-04-04T16:41:10.229Z,-21469.83
2019-04-04T16:43:38.915Z,-21470.95
2019-04-04T16:46:07.191Z,-21502.45
2019-04-04T16:48:35.521Z,-21462.54
2019-04-04T16:51:03.848Z,-21467.30
2019-04-04T16:53:32.127Z,-21446.55
2019-04-04T16:56:00.487Z,-21469.13
2019-04-04T16:58:28.757Z,-21413.55
2019-04-04T17:00:57.025Z,-21403.57
2019-04-04T17:03:25.306Z,-21410.74
2019-04-04T17:05:53.577Z,-21445.57
2019-04-04T17:08:21.855Z,-21462.54
2019-04-04T17:10:50.233Z,-21463.94
2019-04-04T17:13:18.496Z,-21463.52
2019-04-04T17:15:46.779Z,-21482.01
2019-04-04T17:18:15.060Z,-21497.42
2019-04-04T17:20:43.398Z,-21471.37
2019-04-04T17:23:11.691Z,-21463.38
2019-04-04T17:25:40.029Z,-21480.33
2019-04-04T17:28:08.965Z,-21488.74
2019-04-04T17:30:37.430Z,-21455.95
2019-04-04T17:33:05.758Z,-21424.09
2019-04-04T17:35:34.090Z,-21454.26
2019-04-04T17:38:02.631Z,-21434.90
2019-04-04T17:40:51.904Z,-21424.79
2019-04-04T17:43:20.188Z,-21427.74
2019-04-04T17:45:48.507Z,-21420.57
2019-04-04T17:48:16.732Z,-21414.25
2019-04-04T17:50:45.014Z,-21460.71
2019-04-04T17:53:13.277Z,-21451.88
2019-04-04T17:55:41.535Z,-21474.87
2019-04-04T17:58:09.824Z,-21461.98
2019-04-04T18:00:38.207Z,-21437.43
2019-04-04T18:03:06.481Z,-21461.13
2019-04-04T18:05:34.741Z,-21464.92
2019-04-04T18:08:03.105Z,-21475.85
2019-04-04T18:10:31.376Z,-21465.48
2019-04-04T18:12:59.659Z,-21482.01
2019-04-04T18:15:27.933Z,-21461.27
2019-04-04T18:17:56.757Z,-21469.97
2019-04-04T18:20:25.176Z,-21455.66
2019-04-04T18:22:53.546Z,-21439.25
2019-04-04T18:25:21.846Z,-21480.47
2019-04-04T18:27:50.114Z,-21479.77
2019-04-04T18:30:18.552Z,-21450.20
2019-04-04T18:32:46.839Z,-21455.39
2019-04-04T18:35:15.573Z,-21448.38
2019-04-04T18:37:43.846Z,-21461.98
2019-04-04T18:40:12.372Z,-21465.34
2019-04-04T18:42:52.737Z,-21457.21
2019-04-04T18:45:10.910Z,-21445.99
2019-04-04T18:47:39.175Z,-21431.39
2019-04-04T18:50:07.922Z,-21448.24
2019-04-04T18:52:36.182Z,-21442.48
2019-04-04T18:55:18.736Z,-21433.36
2019-04-04T18:57:36.507Z,-21435.46
2019-04-04T19:00:10.019Z,-21452.86
2019-04-04T19:02:38.359Z,-21474.59
2019-04-04T19:05:08.205Z,-21456.51
2019-04-04T19:07:39.412Z,-21464.21
2019-04-04T19:10:07.132Z,-21442.76
2019-04-04T19:12:35.468Z,-21457.49
2019-04-04T19:15:04.097Z,-21439.81
2019-04-04T19:17:32.447Z,-21448.65
2019-04-04T19:20:00.708Z,-21436.44
2019-04-04T19:22:28.983Z,-21426.48
2019-04-04T19:24:57.351Z,-21442.76
2019-04-04T19:27:25.854Z,-21430.41
2019-04-04T19:29:54.215Z,-21456.09
2019-04-04T19:32:22.523Z,-21474.59
2019-04-04T19:34:50.811Z,-21461.42
2019-04-04T19:37:19.067Z,-21423.95
2019-04-04T19:39:47.347Z,-21452.86
2019-04-04T19:42:15.678Z,-21439.95
2019-04-04T19:44:53.074Z,-21429.71
2019-04-04T19:47:14.005Z,-21441.07
2019-04-04T19:49:42.269Z,-21487.90
2019-04-04T19:52:10.641Z,-21496.57
2019-04-04T19:54:38.928Z,-21511.41
2019-04-04T19:57:07.197Z,-21490.84
2019-04-04T19:59:35.562Z,-21492.38
2019-04-04T20:02:03.880Z,-21478.65
2019-04-04T20:04:32.174Z,-21467.86
2019-04-04T20:07:03.439Z,-21485.23
2019-04-04T20:09:30.461Z,-21499.51
2019-04-04T20:11:58.725Z,-21472.63
2019-04-04T20:14:29.050Z,-21460.57
2019-04-04T20:16:57.004Z,-21469.97
2019-04-04T20:19:25.258Z,-21489.72
2019-04-04T20:21:56.315Z,-21500.07
2019-04-04T20:24:23.536Z,-21503.85
2019-04-04T20:26:51.822Z,-21485.80
2019-04-04T20:29:20.186Z,-21474.03
2019-04-04T20:31:48.469Z,-21493.22
2019-04-04T20:34:16.781Z,-21496.72
2019-04-04T20:36:45.084Z,-21484.39
2019-04-04T20:39:13.416Z,-21479.35
2019-04-04T20:41:41.708Z,-21478.93
2019-04-04T20:44:09.981Z,-21453.43
2019-04-04T20:46:38.259Z,-21475.43
2019-04-04T20:49:06.528Z,-21468.15
2019-04-04T20:51:34.794Z,-21466.18
2019-04-04T20:54:03.262Z,-21477.25
2019-04-04T20:56:31.543Z,-21453.29
2019-04-04T20:58:59.915Z,-21460.57
2019-04-04T21:01:28.374Z,-21472.35
2019-04-04T21:03:56.711Z,-21445.43
2019-04-04T21:06:24.988Z,-21448.09
2019-04-04T21:08:53.258Z,-21439.11
2019-04-04T21:11:21.546Z,-21439.95
2019-04-04T21:13:56.172Z,-21458.47
2019-04-04T21:16:19.896Z,-21468.84
2019-04-04T21:18:48.295Z,-21454.97
2019-04-04T21:21:16.544Z,-21456.65
2019-04-04T21:23:44.868Z,-21452.30
2019-04-04T21:26:13.099Z,-21444.03
2019-04-04T21:28:41.380Z,-21455.81
2019-04-04T21:31:09.738Z,-21450.76
2019-04-04T21:33:38.001Z,-21432.52
2019-04-04T21:36:06.289Z,-21450.62
2019-04-04T21:38:34.567Z,-21462.68
2019-04-04T21:41:02.925Z,-21474.17
2019-04-04T21:43:31.208Z,-21467.59
2019-04-04T21:45:59.464Z,-21455.66
2019-04-04T21:48:27.723Z,-21482.01
2019-04-04T21:50:56.072Z,-21478.93
2019-04-04T21:53:24.342Z,-21410.04
2019-04-04T21:55:52.631Z,-21414.96
2019-04-04T21:58:23.930Z,-21427.88
2019-04-04T22:00:51.340Z,-21445.99
2019-04-04T22:03:19.634Z,-21445.43
2019-04-04T22:05:47.870Z,-21434.76
2019-04-04T22:08:16.150Z,-21436.16
2019-04-04T22:10:44.448Z,-21416.78
2019-04-04T22:13:12.734Z,-21430.13
2019-04-04T22:15:41.399Z,-21443.74
2019-04-04T22:18:09.682Z,-21397.95
2019-04-04T22:20:37.947Z,-21416.50
2019-04-04T22:23:06.219Z,-21407.79
2019-04-04T22:25:34.502Z,-21418.89
2019-04-04T22:28:02.843Z,-21428.59
2019-04-04T22:30:31.186Z,-21451.04
2019-04-04T22:33:01.710Z,-21453.00
2019-04-04T22:35:29.468Z,-21429.01
2019-04-04T22:37:57.762Z,-21424.09
2019-04-04T22:40:26.406Z,-21422.41
2019-04-04T22:42:54.801Z,-21446.27
2019-04-04T22:45:23.060Z,-21450.62
2019-04-04T22:47:51.357Z,-21416.08
2019-04-04T22:50:19.615Z,-21448.09
2019-04-04T22:52:47.920Z,-21456.23
2019-04-04T22:55:16.214Z,-21448.52
2019-04-04T22:57:44.486Z,-21434.76
2019-04-04T23:00:14.419Z,-21430.83
2019-04-04T23:02:42.707Z,-21421.00
2019-04-04T23:05:11.049Z,-21374.45
2019-04-04T23:07:39.340Z,-21431.11
2019-04-04T23:10:07.943Z,-21382.90
2019-04-04T23:12:36.329Z,-21442.62
2019-04-04T23:15:09.335Z,-21433.78
2019-04-04T23:17:37.715Z,-21448.38
2019-04-04T23:20:09.237Z,-21430.41
2019-04-04T23:22:37.476Z,-21428.30
2019-04-04T23:25:07.304Z,-21387.68
2019-04-04T23:27:35.592Z,-21387.25
2019-04-04T23:30:05.713Z,-21401.32
2019-04-04T23:32:34.095Z,-21397.95
2019-04-04T23:35:02.479Z,-21394.57
2019-04-04T23:37:30.760Z,-21430.97
2019-04-04T23:39:59.033Z,-21402.03
2019-04-04T23:42:28.362Z,-21377.41
2019-04-04T23:45:01.117Z,-21437.29
2019-04-04T23:47:26.665Z,-21379.94
2019-04-04T23:49:54.938Z,-21391.76
2019-04-04T23:52:23.202Z,-21412.71
2019-04-04T23:54:51.500Z,-21419.59
2019-04-04T23:57:19.777Z,-21408.35
2019-04-04T23:59:48.079Z,-21384.72
